createdAt,value
2019-04-14T00:01:15.116Z,1.10
2019-04-14T00:04:29.063Z,1.10
2019-04-14T00:07:36.313Z,1.20
2019-04-14T00:10:42.632Z,1.10
2019-04-14T00:13:50.130Z,1.13
2019-04-14T00:16:57.796Z,1.00
2019-04-14T00:20:05.364Z,1.40
2019-04-14T00:23:12.995Z,1.20
2019-04-14T00:26:31.560Z,1.10
2019-04-14T00:29:39.202Z,1.03
2019-04-14T00:32:50.943Z,1.30
2019-04-14T00:36:10.924Z,1.00
2019-04-14T00:39:31.536Z,1.10
2019-04-14T00:43:07.489Z,1.10
2019-04-14T00:46:19.004Z,1.00
2019-04-14T00:49:26.765Z,1.20
2019-04-14T00:52:34.052Z,1.37
2019-04-14T00:55:40.527Z,1.37
2019-04-14T00:58:47.535Z,1.23
2019-04-14T01:01:54.794Z,1.30
2019-04-14T01:05:02.532Z,1.10
2019-04-14T01:08:09.673Z,1.10
2019-04-14T01:11:16.395Z,1.50
2019-04-14T01:14:23.306Z,1.40
2019-04-14T01:17:30.907Z,1.27
2019-04-14T01:20:38.531Z,1.17
2019-04-14T01:23:45.537Z,1.23
2019-04-14T01:26:52.866Z,1.27
2019-04-14T01:30:00.353Z,1.40
2019-04-14T01:33:07.614Z,1.30
2019-04-14T01:36:14.851Z,1.10
2019-04-14T01:39:22.174Z,1.13
2019-04-14T01:42:28.898Z,1.30
2019-04-14T01:45:35.921Z,1.20
2019-04-14T01:48:43.198Z,1.20
2019-04-14T01:52:08.186Z,1.40
2019-04-14T01:55:22.311Z,1.50
2019-04-14T01:58:33.903Z,1.17
2019-04-14T02:01:41.144Z,1.17
2019-04-14T02:04:48.522Z,1.20
2019-04-14T02:07:55.867Z,1.30
2019-04-14T02:11:02.995Z,1.50
2019-04-14T02:14:10.422Z,1.10
2019-04-14T02:17:17.760Z,1.20
2019-04-14T02:20:25.069Z,1.15
2019-04-14T02:23:32.279Z,1.40
2019-04-14T02:26:39.914Z,1.37
2019-04-14T02:29:47.242Z,1.90
2019-04-14T02:33:26.039Z,1.27
2019-04-14T02:36:36.369Z,1.20
2019-04-14T02:39:39.114Z,1.40
2019-04-14T02:42:56.396Z,1.30
2019-04-14T02:45:57.904Z,1.20
2019-04-14T02:48:58.426Z,1.30
2019-04-14T02:52:12.368Z,1.20
2019-04-14T02:55:32.415Z,1.30
2019-04-14T02:58:28.482Z,1.20
2019-04-14T03:01:50.774Z,1.17
2019-04-14T03:04:45.325Z,1.40
2019-04-14T03:07:54.439Z,1.20
2019-04-14T03:14:06.332Z,1.40
2019-04-14T03:21:04.003Z,1.60
2019-04-14T03:24:31.751Z,1.30
2019-04-14T03:27:49.970Z,1.13
2019-04-14T03:34:21.180Z,1.10
2019-04-14T03:37:40.659Z,1.40
2019-04-14T03:40:28.142Z,1.30
2019-04-14T03:43:31.015Z,1.30
2019-04-14T03:46:41.464Z,1.20
2019-04-14T03:49:45.238Z,1.30
2019-04-14T03:52:55.771Z,1.30
2019-04-14T03:56:17.648Z,1.40
2019-04-14T03:59:24.011Z,1.30
2019-04-14T04:02:31.529Z,1.57
2019-04-14T04:05:39.188Z,1.20
2019-04-14T04:08:46.467Z,1.50
2019-04-14T04:11:54.040Z,1.07
2019-04-14T04:15:01.844Z,1.37
2019-04-14T04:18:21.911Z,1.20
2019-04-14T04:21:50.939Z,1.30
2019-04-14T04:25:02.966Z,1.30
2019-04-14T04:28:27.865Z,1.30
2019-04-14T04:31:44.318Z,1.70
2019-04-14T04:35:10.722Z,1.53
2019-04-14T04:38:39.866Z,1.30
2019-04-14T04:41:47.255Z,1.40
2019-04-14T04:44:53.718Z,1.40
2019-04-14T04:48:00.442Z,1.40
2019-04-14T04:51:07.216Z,1.43
2019-04-14T04:54:14.688Z,1.17
2019-04-14T04:57:22.062Z,1.60
2019-04-14T05:00:28.806Z,1.37
2019-04-14T05:03:36.165Z,1.50
2019-04-14T05:07:01.822Z,1.37
2019-04-14T05:10:33.371Z,1.60
2019-04-14T05:13:42.408Z,1.80
2019-04-14T05:16:48.950Z,1.40
2019-04-14T05:19:56.222Z,1.60
2019-04-14T05:23:03.656Z,1.30
2019-04-14T05:26:11.298Z,1.30
2019-04-14T05:29:18.879Z,1.50
2019-04-14T05:32:26.155Z,1.40
2019-04-14T05:35:33.381Z,1.80
2019-04-14T05:38:40.796Z,1.40
2019-04-14T05:41:56.758Z,1.53
2019-04-14T05:44:55.850Z,1.40
2019-04-14T05:48:03.224Z,1.60
2019-04-14T05:51:10.958Z,1.80
2019-04-14T05:54:18.540Z,1.63
2019-04-14T05:57:26.221Z,1.70
2019-04-14T06:00:34.207Z,1.30
2019-04-14T06:03:40.974Z,1.60
2019-04-14T06:06:48.059Z,1.50
2019-04-14T06:09:54.572Z,1.40
2019-04-14T06:13:00.898Z,1.50
2019-04-14T06:16:07.398Z,1.40
2019-04-14T06:19:13.817Z,1.40
2019-04-14T06:22:20.215Z,1.50
2019-04-14T06:25:26.579Z,1.67
2019-04-14T06:28:33.132Z,1.40
2019-04-14T06:31:48.847Z,1.22
2019-04-14T06:35:12.827Z,1.37
2019-04-14T06:38:29.076Z,1.47
2019-04-14T06:41:35.643Z,1.37
2019-04-14T06:44:42.002Z,1.50
2019-04-14T06:47:48.574Z,1.65
2019-04-14T06:50:55.047Z,1.73
2019-04-14T06:54:02.687Z,1.30
2019-04-14T06:57:09.022Z,1.47
2019-04-14T07:00:15.499Z,1.40
2019-04-14T07:03:21.877Z,1.23
2019-04-14T07:06:28.360Z,1.40
2019-04-14T07:09:35.069Z,1.40
2019-04-14T07:12:43.017Z,1.23
2019-04-14T07:15:49.474Z,1.37
2019-04-14T07:18:55.877Z,1.87
2019-04-14T07:22:02.199Z,1.43
2019-04-14T07:25:08.686Z,1.50
2019-04-14T07:28:15.038Z,1.60
2019-04-14T07:31:46.581Z,1.30
2019-04-14T07:35:14.894Z,1.47
2019-04-14T07:38:30.617Z,1.77
2019-04-14T07:41:44.236Z,2.22
2019-04-14T07:45:18.541Z,1.60
2019-04-14T07:48:36.291Z,1.50
2019-04-14T07:52:13.907Z,1.45
2019-04-14T07:55:37.590Z,1.47
2019-04-14T07:59:05.932Z,1.60
2019-04-14T08:02:34.206Z,1.72
2019-04-14T08:05:41.164Z,2.00
2019-04-14T08:08:47.511Z,1.60
2019-04-14T08:11:54.146Z,2.00
2019-04-14T08:15:00.576Z,1.50
2019-04-14T08:18:07.017Z,1.57
2019-04-14T08:21:13.375Z,1.70
2019-04-14T08:24:19.837Z,1.57
2019-04-14T08:27:26.243Z,1.70
2019-04-14T08:30:32.768Z,1.33
2019-04-14T08:33:39.212Z,1.53
2019-04-14T08:36:45.618Z,1.50
2019-04-14T08:39:51.958Z,1.70
2019-04-14T08:43:16.149Z,1.60
2019-04-14T08:46:40.441Z,1.40
2019-04-14T08:50:03.420Z,1.60
2019-04-14T08:53:31.883Z,1.30
2019-04-14T08:57:00.713Z,1.52
2019-04-14T09:00:14.392Z,1.30
2019-04-14T09:03:38.722Z,1.60
2019-04-14T09:06:53.150Z,1.57
2019-04-14T09:10:03.931Z,1.50
2019-04-14T09:13:11.199Z,1.60
2019-04-14T09:16:17.733Z,1.70
2019-04-14T09:19:24.179Z,1.60
2019-04-14T09:22:31.544Z,2.00
2019-04-14T09:25:39.395Z,1.60
2019-04-14T09:28:46.275Z,2.03
2019-04-14T09:31:52.618Z,2.13
2019-04-14T09:34:59.280Z,1.80
2019-04-14T09:38:05.618Z,1.70
2019-04-14T09:41:12.009Z,1.70
2019-04-14T09:44:18.413Z,1.83
2019-04-14T09:47:24.879Z,2.03
2019-04-14T09:50:32.222Z,2.00
2019-04-14T09:53:38.874Z,2.00
2019-04-14T09:56:45.475Z,1.92
2019-04-14T09:59:51.905Z,1.67
2019-04-14T10:02:58.254Z,1.90
2019-04-14T10:06:04.894Z,1.80
2019-04-14T10:09:11.352Z,2.75
2019-04-14T10:12:17.875Z,1.97
2019-04-14T10:15:24.834Z,1.90
2019-04-14T10:18:31.425Z,1.80
2019-04-14T10:21:37.854Z,1.90
2019-04-14T10:24:44.270Z,1.70
2019-04-14T10:27:50.624Z,1.87
2019-04-14T10:30:57.202Z,2.00
2019-04-14T10:34:03.733Z,2.00
2019-04-14T10:37:10.285Z,2.10
2019-04-14T10:40:19.118Z,1.80
2019-04-14T10:43:27.191Z,1.83
2019-04-14T10:46:33.528Z,2.10
2019-04-14T10:49:40.291Z,2.00
2019-04-14T10:52:46.654Z,1.97
2019-04-14T10:55:53.122Z,1.80
2019-04-14T10:58:59.570Z,2.20
2019-04-14T11:02:06.121Z,1.73
2019-04-14T11:05:12.574Z,1.87
2019-04-14T11:08:19.482Z,2.13
2019-04-14T11:11:25.766Z,1.90
2019-04-14T11:14:32.184Z,1.80
2019-04-14T11:17:39.090Z,2.03
2019-04-14T11:20:45.601Z,1.80
2019-04-14T11:23:51.975Z,2.00
2019-04-14T11:26:58.698Z,1.93
2019-04-14T11:30:08.685Z,1.90
2019-04-14T11:33:22.706Z,2.07
2019-04-14T11:36:48.997Z,1.70
2019-04-14T11:39:55.608Z,2.03
2019-04-14T11:43:04.623Z,1.90
2019-04-14T11:46:11.237Z,1.93
2019-04-14T11:49:17.657Z,2.02
2019-04-14T11:52:23.980Z,2.03
2019-04-14T11:55:30.274Z,1.80
2019-04-14T11:58:38.592Z,1.80
2019-04-14T12:01:57.595Z,1.72
2019-04-14T12:05:23.249Z,1.87
2019-04-14T12:08:51.311Z,2.30
2019-04-14T12:11:57.737Z,1.83
2019-04-14T12:15:07.463Z,1.90
2019-04-14T12:18:13.488Z,2.20
2019-04-14T12:21:19.930Z,1.80
2019-04-14T12:24:26.499Z,1.70
2019-04-14T12:27:32.842Z,1.90
2019-04-14T12:30:39.900Z,1.70
2019-04-14T12:33:48.383Z,1.83
2019-04-14T12:36:54.979Z,1.70
2019-04-14T12:40:02.670Z,1.87
2019-04-14T12:43:34.289Z,1.70
2019-04-14T12:47:08.932Z,1.60
2019-04-14T12:50:36.901Z,1.60
2019-04-14T12:53:43.186Z,2.13
2019-04-14T12:56:50.656Z,1.80
2019-04-14T12:59:56.981Z,1.80
2019-04-14T13:03:03.373Z,3.40
2019-04-14T13:06:09.820Z,1.80
2019-04-14T13:09:16.279Z,1.60
2019-04-14T13:12:22.696Z,1.57
2019-04-14T13:15:29.183Z,1.67
2019-04-14T13:18:36.319Z,1.63
2019-04-14T13:21:42.882Z,1.70
2019-04-14T13:24:49.217Z,1.50
2019-04-14T13:27:55.674Z,1.60
2019-04-14T13:31:02.012Z,1.67
2019-04-14T13:34:08.628Z,1.60
2019-04-14T13:37:14.925Z,1.77
2019-04-14T13:40:21.622Z,1.40
2019-04-14T13:43:27.982Z,1.97
2019-04-14T13:46:34.465Z,1.60
2019-04-14T13:49:40.910Z,1.50
2019-04-14T13:52:47.802Z,1.70
2019-04-14T13:55:54.075Z,1.83
2019-04-14T13:59:00.556Z,1.50
2019-04-14T14:02:07.145Z,1.50
2019-04-14T14:05:13.875Z,1.50
2019-04-14T14:08:20.245Z,1.30
2019-04-14T14:11:38.537Z,1.73
2019-04-14T14:15:06.689Z,1.47
2019-04-14T14:18:47.291Z,1.67
2019-04-14T14:22:13.037Z,1.43
2019-04-14T14:25:24.509Z,1.40
2019-04-14T14:28:30.917Z,1.40
2019-04-14T14:31:37.390Z,1.37
2019-04-14T14:34:43.813Z,1.60
2019-04-14T14:37:50.145Z,1.73
2019-04-14T14:40:58.482Z,1.60
2019-04-14T14:44:04.938Z,1.57
2019-04-14T14:47:15.843Z,1.50
2019-04-14T14:50:44.092Z,1.47
2019-04-14T14:53:50.566Z,1.50
2019-04-14T14:56:57.033Z,1.43
2019-04-14T15:00:03.495Z,1.60
2019-04-14T15:03:09.995Z,1.97
2019-04-14T15:06:16.444Z,1.87
2019-04-14T15:09:22.862Z,1.50
2019-04-14T15:12:29.205Z,1.60
2019-04-14T15:15:35.547Z,3.33
2019-04-14T15:18:41.870Z,2.17
2019-04-14T15:21:48.273Z,1.80
2019-04-14T15:24:54.735Z,1.50
2019-04-14T15:28:01.093Z,1.50
2019-04-14T15:31:07.664Z,1.63
2019-04-14T15:34:14.104Z,1.42
2019-04-14T15:37:20.436Z,1.50
2019-04-14T15:40:26.838Z,1.50
2019-04-14T15:43:33.615Z,1.70
2019-04-14T15:46:40.174Z,1.40
2019-04-14T15:49:46.518Z,1.57
2019-04-14T15:52:52.986Z,1.70
2019-04-14T15:55:59.766Z,1.70
2019-04-14T15:59:11.163Z,1.70
2019-04-14T16:02:26.881Z,1.40
2019-04-14T16:05:41.551Z,1.30
2019-04-14T16:08:55.507Z,1.43
2019-04-14T16:12:08.561Z,1.60
2019-04-14T16:15:36.689Z,1.40
2019-04-14T16:19:05.177Z,1.43
2019-04-14T16:22:12.757Z,1.40
2019-04-14T16:25:20.791Z,1.30
2019-04-14T16:28:49.309Z,1.50
2019-04-14T16:32:07.361Z,1.30
2019-04-14T16:35:20.773Z,1.67
2019-04-14T16:38:27.210Z,1.50
2019-04-14T16:41:33.507Z,1.40
2019-04-14T16:44:40.352Z,1.40
2019-04-14T16:47:46.773Z,1.53
2019-04-14T16:50:53.295Z,1.10
2019-04-14T16:54:03.742Z,1.30
2019-04-14T16:57:28.752Z,1.30
2019-04-14T17:00:37.815Z,1.60
2019-04-14T17:03:44.360Z,1.53
2019-04-14T17:06:50.694Z,1.50
2019-04-14T17:09:57.072Z,1.50
2019-04-14T17:13:03.565Z,1.40
2019-04-14T17:16:35.160Z,1.50
2019-04-14T17:20:06.422Z,1.50
2019-04-14T17:23:31.153Z,1.77
2019-04-14T17:26:47.527Z,1.00
2019-04-14T17:30:02.334Z,1.57
2019-04-14T17:33:21.010Z,1.30
2019-04-14T17:36:44.225Z,1.57
2019-04-14T17:40:06.255Z,1.30
2019-04-14T17:43:28.347Z,1.70
2019-04-14T17:46:52.863Z,1.80
2019-04-14T17:50:12.156Z,2.80
2019-04-14T17:53:25.585Z,1.40
2019-04-14T17:56:50.434Z,2.10
2019-04-14T18:00:27.879Z,1.40
2019-04-14T18:03:43.534Z,3.30
2019-04-14T18:06:51.972Z,2.87
2019-04-14T18:10:20.742Z,2.07
2019-04-14T18:13:37.291Z,1.73
2019-04-14T18:17:04.061Z,1.50
2019-04-14T18:20:20.240Z,1.67
2019-04-14T18:23:27.531Z,1.50
2019-04-14T18:26:34.509Z,1.60
2019-04-14T18:29:47.054Z,1.50
2019-04-14T18:33:08.394Z,1.80
2019-04-14T18:36:36.812Z,1.67
2019-04-14T18:39:52.729Z,1.80
2019-04-14T18:43:10.226Z,1.97
2019-04-14T18:46:35.275Z,1.70
2019-04-14T18:49:52.456Z,1.47
2019-04-14T18:53:06.245Z,1.70
2019-04-14T18:56:24.931Z,2.23
2019-04-14T18:59:38.641Z,1.80
2019-04-14T19:02:45.036Z,1.70
2019-04-14T19:05:51.466Z,1.57
2019-04-14T19:08:59.058Z,1.80
2019-04-14T19:12:23.336Z,1.80
2019-04-14T19:15:42.826Z,1.90
2019-04-14T19:18:51.756Z,2.20
2019-04-14T19:21:58.393Z,2.00
2019-04-14T19:25:08.449Z,1.93
2019-04-14T19:28:12.901Z,1.77
2019-04-14T19:31:19.727Z,2.20
2019-04-14T19:34:26.153Z,1.90
2019-04-14T19:37:32.490Z,2.20
2019-04-14T19:40:40.184Z,2.20
2019-04-14T19:43:46.621Z,2.53
2019-04-14T19:46:52.956Z,2.67
2019-04-14T19:49:59.504Z,2.70
2019-04-14T19:53:05.974Z,2.20
2019-04-14T19:56:13.549Z,3.17
2019-04-14T19:59:20.468Z,1.92
2019-04-14T20:02:27.838Z,1.83
2019-04-14T20:05:34.261Z,2.73
2019-04-14T20:08:40.567Z,2.47
2019-04-14T20:11:47.161Z,2.08
2019-04-14T20:14:53.466Z,2.40
2019-04-14T20:18:17.264Z,2.47
2019-04-14T20:21:48.586Z,2.70
2019-04-14T20:24:59.241Z,2.60
2019-04-14T20:28:09.641Z,3.07
2019-04-14T20:31:38.104Z,3.10
2019-04-14T20:34:45.046Z,2.70
2019-04-14T20:37:52.496Z,2.97
2019-04-14T20:40:58.755Z,2.97
2019-04-14T20:44:05.297Z,2.37
2019-04-14T20:47:11.862Z,2.20
2019-04-14T20:50:18.682Z,2.10
2019-04-14T20:53:25.231Z,2.20
2019-04-14T20:56:32.517Z,1.90
2019-04-14T20:59:38.827Z,2.60
2019-04-14T21:03:04.233Z,2.80
2019-04-14T21:06:41.794Z,2.57
2019-04-14T21:09:58.189Z,2.80
2019-04-14T21:13:26.802Z,2.47
2019-04-14T21:16:37.444Z,2.47
2019-04-14T21:20:05.258Z,3.13
2019-04-14T21:23:16.265Z,3.30
2019-04-14T21:26:39.001Z,2.43
2019-04-14T21:30:03.974Z,2.85
2019-04-14T21:33:36.427Z,2.53
2019-04-14T21:36:51.102Z,2.35
2019-04-14T21:40:25.573Z,2.40
2019-04-14T21:43:31.890Z,2.40
2019-04-14T21:46:38.311Z,2.52
2019-04-14T21:49:44.802Z,2.50
2019-04-14T21:52:51.408Z,2.50
2019-04-14T21:55:57.780Z,2.30
2019-04-14T21:59:10.951Z,2.77
2019-04-14T22:02:35.470Z,2.83
2019-04-14T22:05:47.520Z,2.70
2019-04-14T22:08:54.230Z,2.70
2019-04-14T22:12:02.390Z,2.47
2019-04-14T22:15:09.022Z,2.70
2019-04-14T22:18:15.709Z,2.45
2019-04-14T22:21:22.067Z,2.77
2019-04-14T22:24:28.399Z,2.40
2019-04-14T22:27:34.879Z,2.60
2019-04-14T22:30:41.708Z,2.83
2019-04-14T22:33:48.005Z,3.50
2019-04-14T22:36:55.061Z,2.92
2019-04-14T22:40:01.868Z,2.73
2019-04-14T22:43:09.272Z,2.80
2019-04-14T22:46:16.135Z,2.90
2019-04-14T22:49:22.421Z,2.50
2019-04-14T22:52:28.815Z,2.70
2019-04-14T22:55:35.547Z,3.33
2019-04-14T22:58:41.856Z,2.90
2019-04-14T23:01:51.517Z,3.10
2019-04-14T23:05:11.622Z,3.27
2019-04-14T23:08:44.287Z,2.40
2019-04-14T23:11:57.842Z,2.90
2019-04-14T23:15:29.868Z,3.33
2019-04-14T23:19:04.680Z,2.90
2019-04-14T23:22:23.178Z,3.10
2019-04-14T23:25:29.715Z,2.30
2019-04-14T23:28:36.046Z,3.30
2019-04-14T23:31:42.411Z,2.80
2019-04-14T23:34:48.757Z,3.07
2019-04-14T23:37:55.804Z,2.77
2019-04-14T23:41:03.142Z,3.20
2019-04-14T23:44:09.932Z,2.90
2019-04-14T23:47:16.338Z,2.50
2019-04-14T23:50:22.778Z,3.07
2019-04-14T23:53:29.103Z,3.20
2019-04-14T23:56:36.246Z,2.90
2019-04-14T23:59:42.573Z,2.70
